createdAt,value
2019-03-18T00:01:45.528Z,101826.23
2019-03-18T00:04:48.608Z,101825.21
2019-03-18T00:07:51.804Z,101820.48
2019-03-18T00:10:55.002Z,101818.79
2019-03-18T00:13:58.213Z,101819.46
2019-03-18T00:17:01.379Z,101822.59
2019-03-18T00:20:04.739Z,101822.33
2019-03-18T00:23:07.875Z,101817.38
2019-03-18T00:26:11.074Z,101817.48
2019-03-18T00:29:14.365Z,101824.61
2019-03-18T00:32:17.456Z,101818.43
2019-03-18T00:35:20.647Z,101810.91
2019-03-18T00:38:23.849Z,101812.54
2019-03-18T00:41:27.053Z,101814.27
2019-03-18T00:44:30.253Z,101813.12
2019-03-18T00:47:33.436Z,101814.60
2019-03-18T00:50:36.631Z,101826.24
2019-03-18T00:53:39.815Z,101831.09
2019-03-18T00:56:43.023Z,101822.83
2019-03-18T00:59:46.204Z,101829.44
2019-03-18T01:02:50.038Z,101834.96
2019-03-18T01:05:52.591Z,101853.02
2019-03-18T01:08:55.695Z,101846.06
2019-03-18T01:11:58.977Z,101847.33
2019-03-18T01:15:02.178Z,101851.25
2019-03-18T01:18:05.363Z,101853.31
2019-03-18T01:21:08.450Z,101852.95
2019-03-18T01:24:11.575Z,101857.01
2019-03-18T01:27:14.748Z,101856.89
2019-03-18T01:30:17.988Z,101848.58
2019-03-18T01:33:21.482Z,101858.05
2019-03-18T01:36:24.623Z,101858.23
2019-03-18T01:39:27.723Z,101855.14
2019-03-18T01:42:30.825Z,101852.45
2019-03-18T01:45:40.545Z,101855.11
2019-03-18T01:48:37.196Z,101853.88
2019-03-18T01:51:40.304Z,101856.87
2019-03-18T01:54:43.508Z,101858.55
2019-03-18T01:57:46.684Z,101856.35
2019-03-18T02:00:49.892Z,101856.43
2019-03-18T02:03:53.083Z,101859.35
2019-03-18T02:06:56.372Z,101858.81
2019-03-18T02:09:59.580Z,101860.74
2019-03-18T02:13:02.787Z,101856.76
2019-03-18T02:16:05.968Z,101857.88
2019-03-18T02:19:09.151Z,101857.83
2019-03-18T02:22:12.352Z,101851.76
2019-03-18T02:25:15.569Z,101852.00
2019-03-18T02:28:18.740Z,101849.01
2019-03-18T02:31:21.950Z,101854.48
2019-03-18T02:34:25.161Z,101862.40
2019-03-18T02:37:28.352Z,101869.85
2019-03-18T02:40:31.604Z,101874.08
2019-03-18T02:43:34.743Z,101870.67
2019-03-18T02:46:37.891Z,101875.72
2019-03-18T02:49:41.021Z,101880.24
2019-03-18T02:52:44.181Z,101879.05
2019-03-18T02:55:47.377Z,101881.19
2019-03-18T02:58:50.504Z,101882.16
2019-03-18T03:01:53.678Z,101884.06
2019-03-18T03:04:56.768Z,101885.21
2019-03-18T03:07:59.959Z,101885.92
2019-03-18T03:11:03.162Z,101877.55
2019-03-18T03:14:06.350Z,101883.60
2019-03-18T03:17:09.459Z,101885.90
2019-03-18T03:20:12.663Z,101887.52
2019-03-18T03:23:15.832Z,101888.44
2019-03-18T03:26:19.012Z,101892.25
2019-03-18T03:29:22.238Z,101887.63
2019-03-18T03:32:25.424Z,101891.34
2019-03-18T03:35:28.625Z,101891.78
2019-03-18T03:38:31.821Z,101890.76
2019-03-18T03:41:35.001Z,101893.44
2019-03-18T03:44:38.085Z,101898.25
2019-03-18T03:47:41.176Z,101906.47
2019-03-18T03:50:44.393Z,101909.91
2019-03-18T03:53:47.561Z,101902.59
2019-03-18T03:56:50.660Z,101904.86
2019-03-18T03:59:53.799Z,101906.72
2019-03-18T04:02:56.943Z,101903.42
2019-03-18T04:06:00.196Z,101903.06
2019-03-18T04:09:03.826Z,101909.44
2019-03-18T04:12:06.955Z,101903.54
2019-03-18T04:15:10.131Z,101907.56
2019-03-18T04:18:13.340Z,101910.62
2019-03-18T04:21:16.516Z,101916.88
2019-03-18T04:24:19.620Z,101921.69
2019-03-18T04:27:24.761Z,101922.10
2019-03-18T04:30:25.895Z,101930.69
2019-03-18T04:33:28.983Z,101916.44
2019-03-18T04:36:32.097Z,101922.94
2019-03-18T04:39:35.295Z,101923.31
2019-03-18T04:42:38.379Z,101927.73
2019-03-18T04:45:42.179Z,101938.80
2019-03-18T04:48:45.051Z,101946.51
2019-03-18T04:51:48.147Z,101947.61
2019-03-18T04:54:51.246Z,101944.86
2019-03-18T04:57:54.438Z,101947.78
2019-03-18T05:00:57.659Z,101949.39
2019-03-18T05:04:00.775Z,101949.99
2019-03-18T05:07:03.923Z,101952.90
2019-03-18T05:10:07.172Z,101950.94
2019-03-18T05:13:10.324Z,101943.61
2019-03-18T05:16:13.499Z,101953.69
2019-03-18T05:19:16.696Z,101954.68
2019-03-18T05:22:19.787Z,101944.53
2019-03-18T05:25:22.983Z,101948.89
2019-03-18T05:28:26.185Z,101953.63
2019-03-18T05:31:29.412Z,101955.16
2019-03-18T05:34:33.187Z,101956.32
2019-03-18T05:37:36.501Z,101964.89
2019-03-18T05:40:39.724Z,101969.45
2019-03-18T05:43:42.863Z,101971.70
2019-03-18T05:46:46.060Z,101982.22
2019-03-18T05:49:49.265Z,101977.37
2019-03-18T05:52:52.447Z,101985.92
2019-03-18T05:55:55.615Z,101989.40
2019-03-18T05:58:58.754Z,101986.33
2019-03-18T06:02:02.020Z,102000.60
2019-03-18T06:05:06.033Z,101997.88
2019-03-18T06:08:11.519Z,102012.49
2019-03-18T06:11:12.353Z,102005.43
2019-03-18T06:14:15.537Z,102011.18
2019-03-18T06:17:19.453Z,102019.37
2019-03-18T06:20:22.645Z,102025.01
2019-03-18T06:23:25.815Z,102031.83
2019-03-18T06:26:29.032Z,102024.23
2019-03-18T06:29:32.332Z,102025.29
2019-03-18T06:32:35.527Z,102041.84
2019-03-18T06:35:38.704Z,102049.10
2019-03-18T06:38:42.004Z,102047.80
2019-03-18T06:41:45.226Z,102057.42
2019-03-18T06:44:48.491Z,102057.32
2019-03-18T06:48:03.781Z,102053.34
2019-03-18T06:50:54.880Z,102063.93
2019-03-18T06:53:58.095Z,102064.41
2019-03-18T06:57:01.300Z,102074.21
2019-03-18T07:00:06.945Z,102068.43
2019-03-18T07:03:08.585Z,102088.92
2019-03-18T07:06:11.891Z,102088.28
2019-03-18T07:09:15.091Z,102096.87
2019-03-18T07:12:18.331Z,102094.83
2019-03-18T07:15:21.477Z,102102.35
2019-03-18T07:18:24.644Z,102101.14
2019-03-18T07:21:27.852Z,102101.38
2019-03-18T07:24:31.063Z,102119.54
2019-03-18T07:27:34.264Z,102116.23
2019-03-18T07:30:37.523Z,102125.98
2019-03-18T07:33:40.762Z,102134.62
2019-03-18T07:36:43.970Z,102134.70
2019-03-18T07:39:47.164Z,102145.87
2019-03-18T07:42:50.312Z,102138.87
2019-03-18T07:45:53.589Z,102143.49
2019-03-18T07:48:56.740Z,102146.23
2019-03-18T07:52:00.015Z,102141.14
2019-03-18T07:55:03.213Z,102142.22
2019-03-18T07:58:06.425Z,102145.50
2019-03-18T08:01:09.620Z,102147.05
2019-03-18T08:04:12.773Z,102148.32
2019-03-18T08:07:15.978Z,102148.71
2019-03-18T08:10:19.180Z,102154.27
2019-03-18T08:13:22.264Z,102158.33
2019-03-18T08:16:25.360Z,102155.53
2019-03-18T08:19:28.687Z,102166.16
2019-03-18T08:22:31.853Z,102164.09
2019-03-18T08:25:35.028Z,102161.73
2019-03-18T08:28:38.240Z,102158.77
2019-03-18T08:31:41.523Z,102164.20
2019-03-18T08:34:45.641Z,102163.07
2019-03-18T08:37:48.843Z,102164.42
2019-03-18T08:40:52.030Z,102162.75
2019-03-18T08:43:55.235Z,102154.70
2019-03-18T08:46:58.788Z,102153.81
2019-03-18T08:50:01.933Z,102158.55
2019-03-18T08:53:05.123Z,102164.14
2019-03-18T08:56:08.413Z,102164.85
2019-03-18T08:59:11.609Z,102174.12
2019-03-18T09:02:14.860Z,102181.08
2019-03-18T09:05:18.080Z,102184.38
2019-03-18T09:08:21.198Z,102185.51
2019-03-18T09:11:24.371Z,102182.72
2019-03-18T09:14:27.620Z,102182.08
2019-03-18T09:17:30.788Z,102185.60
2019-03-18T09:20:33.894Z,102180.27
2019-03-18T09:23:37.047Z,102182.61
2019-03-18T09:26:40.270Z,102194.41
2019-03-18T09:29:43.548Z,102194.98
2019-03-18T09:32:46.769Z,102174.38
2019-03-18T09:35:50.031Z,102185.07
2019-03-18T09:38:53.138Z,102183.39
2019-03-18T09:41:56.353Z,102185.39
2019-03-18T09:44:59.551Z,102186.59
2019-03-18T09:48:02.858Z,102190.14
2019-03-18T09:51:06.025Z,102192.79
2019-03-18T09:54:09.274Z,102187.95
2019-03-18T09:57:25.098Z,102194.14
2019-03-18T10:00:15.915Z,102199.73
2019-03-18T10:03:19.100Z,102196.46
2019-03-18T10:06:22.296Z,102207.55
2019-03-18T10:09:25.487Z,102213.94
2019-03-18T10:12:28.628Z,102209.94
2019-03-18T10:15:31.805Z,102225.16
2019-03-18T10:18:34.875Z,102220.41
2019-03-18T10:21:38.075Z,102232.08
2019-03-18T10:24:41.269Z,102231.48
2019-03-18T10:27:44.448Z,102231.85
2019-03-18T10:30:47.684Z,102234.67
2019-03-18T10:33:50.840Z,102234.73
2019-03-18T10:36:54.058Z,102236.21
2019-03-18T10:39:57.216Z,102236.26
2019-03-18T10:43:00.297Z,102238.87
2019-03-18T10:46:03.521Z,102241.93
2019-03-18T10:49:06.634Z,102235.29
2019-03-18T10:52:09.825Z,102244.18
2019-03-18T10:55:13.008Z,102238.59
2019-03-18T10:58:18.115Z,102239.92
2019-03-18T11:01:19.375Z,102238.37
2019-03-18T11:04:22.502Z,102248.52
2019-03-18T11:07:25.561Z,102246.73
2019-03-18T11:10:28.664Z,102265.92
2019-03-18T11:13:31.856Z,102261.60
2019-03-18T11:16:35.037Z,102262.87
2019-03-18T11:19:38.135Z,102265.73
2019-03-18T11:22:41.223Z,102266.45
2019-03-18T11:25:44.316Z,102263.23
2019-03-18T11:28:47.403Z,102263.52
2019-03-18T11:31:50.496Z,102264.00
2019-03-18T11:34:53.591Z,102256.86
2019-03-18T11:37:56.695Z,102262.60
2019-03-18T11:40:59.924Z,102256.33
2019-03-18T11:44:03.028Z,102243.95
2019-03-18T11:47:06.175Z,102244.24
2019-03-18T11:50:11.648Z,102238.38
2019-03-18T11:53:14.539Z,102235.26
2019-03-18T11:56:16.724Z,102230.97
2019-03-18T11:59:21.136Z,102227.96
2019-03-18T12:02:27.864Z,102220.20
2019-03-18T12:05:26.581Z,102219.71
2019-03-18T12:08:29.820Z,102206.32
2019-03-18T12:11:32.960Z,102205.82
2019-03-18T12:14:36.156Z,102207.32
2019-03-18T12:17:39.394Z,102203.03
2019-03-18T12:20:42.682Z,102203.72
2019-03-18T12:23:45.835Z,102198.37
2019-03-18T12:26:49.289Z,102195.26
2019-03-18T12:29:52.231Z,102194.62
2019-03-18T12:32:55.440Z,102190.83
2019-03-18T12:35:58.625Z,102189.86
2019-03-18T12:39:01.815Z,102194.19
2019-03-18T12:42:05.017Z,102185.15
2019-03-18T12:45:09.497Z,102181.24
2019-03-18T12:48:12.644Z,102183.43
2019-03-18T12:51:15.821Z,102195.01
2019-03-18T12:54:19.008Z,102187.39
2019-03-18T12:57:22.096Z,102179.96
2019-03-18T13:00:25.923Z,102185.28
2019-03-18T13:03:29.505Z,102176.06
2019-03-18T13:06:33.647Z,102185.67
2019-03-18T13:09:35.703Z,102180.51
2019-03-18T13:12:38.909Z,102193.57
2019-03-18T13:15:42.108Z,102193.79
2019-03-18T13:18:45.284Z,102187.37
2019-03-18T13:21:48.451Z,102178.81
2019-03-18T13:24:51.564Z,102181.05
2019-03-18T13:27:54.816Z,102187.45
2019-03-18T13:30:57.968Z,102184.60
2019-03-18T13:34:01.174Z,102183.91
2019-03-18T13:37:04.447Z,102185.53
2019-03-18T13:40:08.569Z,102183.22
2019-03-18T13:43:11.861Z,102178.06
2019-03-18T13:46:15.075Z,102178.76
2019-03-18T13:49:18.268Z,102177.42
2019-03-18T13:52:21.459Z,102179.49
2019-03-18T13:55:24.670Z,102179.46
2019-03-18T13:58:27.843Z,102176.82
2019-03-18T14:01:31.046Z,102175.86
2019-03-18T14:04:34.233Z,102175.99
2019-03-18T14:07:37.448Z,102169.25
2019-03-18T14:10:40.560Z,102182.67
2019-03-18T14:13:43.720Z,102169.32
2019-03-18T14:16:46.902Z,102176.54
2019-03-18T14:19:50.117Z,102166.93
2019-03-18T14:22:53.294Z,102175.79
2019-03-18T14:25:56.490Z,102162.63
2019-03-18T14:28:59.681Z,102165.77
2019-03-18T14:32:03.822Z,102166.77
2019-03-18T14:35:07.286Z,102168.50
2019-03-18T14:38:10.384Z,102160.58
2019-03-18T14:41:13.495Z,102159.74
2019-03-18T14:44:16.592Z,102153.20
2019-03-18T14:47:19.828Z,102167.11
2019-03-18T14:50:23.072Z,102200.02
2019-03-18T14:53:26.178Z,102213.56
2019-03-18T14:56:29.360Z,102240.23
2019-03-18T14:59:32.559Z,102241.73
2019-03-18T15:02:35.747Z,102247.57
2019-03-18T15:05:38.949Z,102253.57
2019-03-18T15:08:42.144Z,102255.08
2019-03-18T15:11:45.437Z,102245.99
2019-03-18T15:14:48.644Z,102233.66
2019-03-18T15:17:53.295Z,102225.07
2019-03-18T15:20:57.569Z,102225.45
2019-03-18T15:24:00.695Z,102224.57
2019-03-18T15:27:03.935Z,102217.75
2019-03-18T15:30:09.090Z,102217.48
2019-03-18T15:33:12.272Z,102213.51
2019-03-18T15:36:15.467Z,102208.27
2019-03-18T15:39:18.639Z,102204.16
2019-03-18T15:42:23.337Z,102205.45
2019-03-18T15:45:26.867Z,102211.68
2019-03-18T15:48:30.045Z,102208.57
2019-03-18T15:51:33.304Z,102215.10
2019-03-18T15:54:36.459Z,102227.69
2019-03-18T15:57:40.611Z,102234.18
2019-03-18T16:00:43.728Z,102243.52
2019-03-18T16:03:46.933Z,102253.22
2019-03-18T16:06:50.045Z,102245.66
2019-03-18T16:09:53.218Z,102248.96
2019-03-18T16:12:56.534Z,102257.92
2019-03-18T16:16:00.067Z,102264.99
2019-03-18T16:19:03.201Z,102278.42
2019-03-18T16:22:06.395Z,102285.24
2019-03-18T16:25:09.626Z,102289.88
2019-03-18T16:28:12.776Z,102304.77
2019-03-18T16:31:15.960Z,102307.19
2019-03-18T16:34:19.067Z,102318.30
2019-03-18T16:37:22.252Z,102325.36
2019-03-18T16:40:25.452Z,102336.85
2019-03-18T16:43:28.532Z,102343.93
2019-03-18T16:46:31.664Z,102347.99
2019-03-18T16:49:35.244Z,102345.60
2019-03-18T16:52:42.855Z,102347.86
2019-03-18T16:55:46.612Z,102351.09
2019-03-18T16:58:49.750Z,102354.08
2019-03-18T17:01:52.966Z,102367.02
2019-03-18T17:04:56.115Z,102375.73
2019-03-18T17:07:59.220Z,102374.46
2019-03-18T17:11:03.290Z,102371.39
2019-03-18T17:14:06.443Z,102370.57
2019-03-18T17:17:09.614Z,102368.95
2019-03-18T17:20:12.824Z,102370.51
2019-03-18T17:23:16.010Z,102368.56
2019-03-18T17:26:19.193Z,102370.94
2019-03-18T17:29:22.349Z,102375.29
2019-03-18T17:32:25.594Z,102376.34
2019-03-18T17:35:28.679Z,102381.88
2019-03-18T17:38:31.896Z,102390.05
2019-03-18T17:41:35.068Z,102384.72
2019-03-18T17:44:38.164Z,102381.06
2019-03-18T17:47:41.367Z,102388.34
2019-03-18T17:50:44.464Z,102395.05
2019-03-18T17:53:47.663Z,102400.04
2019-03-18T17:56:50.828Z,102411.24
2019-03-18T17:59:53.958Z,102430.15
2019-03-18T18:02:57.160Z,102430.73
2019-03-18T18:06:00.316Z,102423.97
2019-03-18T18:09:03.611Z,102431.18
2019-03-18T18:12:06.715Z,102438.08
2019-03-18T18:15:09.864Z,102438.52
2019-03-18T18:18:13.020Z,102440.19
2019-03-18T18:21:16.196Z,102443.76
2019-03-18T18:24:19.372Z,102441.32
2019-03-18T18:27:22.471Z,102446.52
2019-03-18T18:30:25.680Z,102460.90
2019-03-18T18:33:28.764Z,102457.76
2019-03-18T18:36:31.966Z,102464.99
2019-03-18T18:39:35.182Z,102468.18
2019-03-18T18:42:38.312Z,102467.68
2019-03-18T18:45:41.468Z,102471.98
2019-03-18T18:48:44.664Z,102484.05
2019-03-18T18:51:47.848Z,102483.90
2019-03-18T18:54:51.035Z,102491.36
2019-03-18T18:57:54.227Z,102495.80
2019-03-18T19:00:57.312Z,102499.01
2019-03-18T19:04:00.542Z,102499.23
2019-03-18T19:07:03.805Z,102506.41
2019-03-18T19:10:07.682Z,102510.08
2019-03-18T19:13:10.824Z,102515.18
2019-03-18T19:16:14.002Z,102521.09
2019-03-18T19:19:17.197Z,102526.07
2019-03-18T19:22:20.508Z,102528.32
2019-03-18T19:25:23.776Z,102527.72
2019-03-18T19:28:26.977Z,102527.16
2019-03-18T19:31:30.197Z,102535.10
2019-03-18T19:34:33.372Z,102536.65
2019-03-18T19:37:36.596Z,102544.94
2019-03-18T19:40:39.727Z,102550.70
2019-03-18T19:43:42.856Z,102550.08
2019-03-18T19:46:46.052Z,102552.31
2019-03-18T19:49:49.244Z,102558.65
2019-03-18T19:52:52.787Z,102571.61
2019-03-18T19:55:55.948Z,102581.37
2019-03-18T19:58:59.160Z,102587.52
2019-03-18T20:02:02.345Z,102594.09
2019-03-18T20:05:14.579Z,102593.39
2019-03-18T20:08:09.120Z,102595.68
2019-03-18T20:11:12.236Z,102598.69
2019-03-18T20:14:15.405Z,102596.52
2019-03-18T20:17:18.620Z,102589.77
2019-03-18T20:20:21.704Z,102594.63
2019-03-18T20:23:24.968Z,102594.90
2019-03-18T20:26:30.240Z,102602.58
2019-03-18T20:29:31.403Z,102598.87
2019-03-18T20:32:34.636Z,102615.18
2019-03-18T20:35:37.787Z,102606.93
2019-03-18T20:38:40.974Z,102608.82
2019-03-18T20:41:44.163Z,102610.65
2019-03-18T20:44:47.367Z,102617.99
2019-03-18T20:47:50.567Z,102617.99
2019-03-18T20:50:53.763Z,102617.33
2019-03-18T20:53:56.951Z,102622.36
2019-03-18T20:57:00.140Z,102623.34
2019-03-18T21:00:03.454Z,102630.02
2019-03-18T21:03:06.644Z,102626.66
2019-03-18T21:06:09.816Z,102627.86
2019-03-18T21:09:12.908Z,102632.14
2019-03-18T21:12:16.003Z,102633.29
2019-03-18T21:15:19.111Z,102645.79
2019-03-18T21:18:22.291Z,102639.55
2019-03-18T21:21:25.396Z,102648.71
2019-03-18T21:24:28.579Z,102654.06
2019-03-18T21:27:31.789Z,102649.28
2019-03-18T21:30:34.984Z,102648.56
2019-03-18T21:33:38.067Z,102650.08
2019-03-18T21:36:41.261Z,102659.54
2019-03-18T21:39:44.356Z,102656.05
2019-03-18T21:42:47.594Z,102659.07
2019-03-18T21:45:50.724Z,102657.74
2019-03-18T21:48:53.825Z,102652.56
2019-03-18T21:51:56.951Z,102656.65
2019-03-18T21:55:00.116Z,102655.51
2019-03-18T21:58:03.209Z,102663.12
2019-03-18T22:01:06.395Z,102665.06
2019-03-18T22:04:09.507Z,102664.88
2019-03-18T22:07:12.677Z,102657.18
2019-03-18T22:10:15.815Z,102667.06
2019-03-18T22:13:18.980Z,102670.97
2019-03-18T22:16:22.113Z,102670.17
2019-03-18T22:19:25.289Z,102663.48
2019-03-18T22:22:28.454Z,102664.84
2019-03-18T22:25:31.660Z,102674.18
2019-03-18T22:28:34.911Z,102676.16
2019-03-18T22:31:38.437Z,102672.02
2019-03-18T22:34:41.560Z,102675.21
2019-03-18T22:37:44.844Z,102678.89
2019-03-18T22:40:48.040Z,102683.70
2019-03-18T22:43:51.226Z,102687.17
2019-03-18T22:46:54.321Z,102683.89
2019-03-18T22:49:57.521Z,102678.14
2019-03-18T22:53:00.718Z,102681.99
2019-03-18T22:56:03.896Z,102685.04
2019-03-18T22:59:06.991Z,102685.04
2019-03-18T23:02:10.102Z,102681.23
2019-03-18T23:05:14.325Z,102679.01
2019-03-18T23:08:17.512Z,102688.21
2019-03-18T23:11:20.695Z,102688.29
2019-03-18T23:14:23.877Z,102689.25
2019-03-18T23:17:26.971Z,102686.33
2019-03-18T23:20:30.177Z,102689.37
2019-03-18T23:23:33.369Z,102690.51
2019-03-18T23:26:36.558Z,102695.51
2019-03-18T23:29:39.664Z,102691.38
2019-03-18T23:32:42.844Z,102689.31
2019-03-18T23:35:45.950Z,102692.24
2019-03-18T23:38:49.130Z,102690.99
2019-03-18T23:41:52.221Z,102697.41
2019-03-18T23:44:55.420Z,102704.83
2019-03-18T23:47:58.515Z,102702.57
2019-03-18T23:51:01.611Z,102702.10
2019-03-18T23:54:04.848Z,102702.12
2019-03-18T23:57:08.003Z,102697.71
